sensor_id;sensor_type;location;lat;lon;timestamp;temperature;humidity
71523;HTU21D;59343;51.102;5.884;2023-03-23T00:01:58;14.13;74.10
71523;HTU21D;59343;51.102;5.884;2023-03-23T00:04:24;14.13;74.10
71523;HTU21D;59343;51.102;5.884;2023-03-23T00:06:52;14.14;74.08
71523;HTU21D;59343;51.102;5.884;2023-03-23T00:09:18;14.17;74.01
71523;HTU21D;59343;51.102;5.884;2023-03-23T00:11:50;14.14;74.09
71523;HTU21D;59343;51.102;5.884;2023-03-23T00:14:17;14.15;74.07
71523;HTU21D;59343;51.102;5.884;2023-03-23T00:16:48;14.12;74.12
71523;HTU21D;59343;51.102;5.884;2023-03-23T00:19:16;14.13;74.24
71523;HTU21D;59343;51.102;5.884;2023-03-23T00:21:45;14.13;74.14
71523;HTU21D;59343;51.102;5.884;2023-03-23T00:24:15;14.14;74.21
71523;HTU21D;59343;51.102;5.884;2023-03-23T00:26:44;14.13;74.28
71523;HTU21D;59343;51.102;5.884;2023-03-23T00:29:20;14.12;74.38
71523;HTU21D;59343;51.102;5.884;2023-03-23T00:31:50;14.15;74.34
71523;HTU21D;59343;51.102;5.884;2023-03-23T00:34:21;14.14;74.45
71523;HTU21D;59343;51.102;5.884;2023-03-23T00:36:54;14.18;74.34
71523;HTU21D;59343;51.102;5.884;2023-03-23T00:39:24;14.14;74.44
71523;HTU21D;59343;51.102;5.884;2023-03-23T00:41:51;14.14;74.51
71523;HTU21D;59343;51.102;5.884;2023-03-23T00:44:17;14.17;74.46
71523;HTU21D;59343;51.102;5.884;2023-03-23T00:46:47;14.14;74.54
71523;HTU21D;59343;51.102;5.884;2023-03-23T00:49:20;14.15;74.57
71523;HTU21D;59343;51.102;5.884;2023-03-23T00:51:55;14.15;74.71
71523;HTU21D;59343;51.102;5.884;2023-03-23T00:54:24;14.14;74.67
71523;HTU21D;59343;51.102;5.884;2023-03-23T00:56:51;14.18;74.60
71523;HTU21D;59343;51.102;5.884;2023-03-23T00:59:17;14.18;74.69
71523;HTU21D;59343;51.102;5.884;2023-03-23T01:01:44;14.21;74.69
71523;HTU21D;59343;51.102;5.884;2023-03-23T01:04:10;14.19;74.67
71523;HTU21D;59343;51.102;5.884;2023-03-23T01:06:41;14.20;74.71
71523;HTU21D;59343;51.102;5.884;2023-03-23T01:09:15;14.19;74.79
71523;HTU21D;59343;51.102;5.884;2023-03-23T01:11:43;14.17;74.92
71523;HTU21D;59343;51.102;5.884;2023-03-23T01:14:10;14.19;74.91
71523;HTU21D;59343;51.102;5.884;2023-03-23T01:16:36;14.10;75.33
71523;HTU21D;59343;51.102;5.884;2023-03-23T01:19:02;14.13;75.24
71523;HTU21D;59343;51.102;5.884;2023-03-23T01:21:29;14.09;75.38
71523;HTU21D;59343;51.102;5.884;2023-03-23T01:23:55;14.11;75.40
71523;HTU21D;59343;51.102;5.884;2023-03-23T01:26:24;14.06;75.78
71523;HTU21D;59343;51.102;5.884;2023-03-23T01:28:52;14.09;75.59
71523;HTU21D;59343;51.102;5.884;2023-03-23T01:31:20;14.09;75.79
71523;HTU21D;59343;51.102;5.884;2023-03-23T01:33:48;14.08;75.86
71523;HTU21D;59343;51.102;5.884;2023-03-23T01:36:24;14.09;75.95
71523;HTU21D;59343;51.102;5.884;2023-03-23T01:38:53;14.09;76.05
71523;HTU21D;59343;51.102;5.884;2023-03-23T01:41:20;14.07;76.38
71523;HTU21D;59343;51.102;5.884;2023-03-23T01:43:59;14.09;76.21
71523;HTU21D;59343;51.102;5.884;2023-03-23T01:46:35;14.10;76.25
71523;HTU21D;59343;51.102;5.884;2023-03-23T01:49:09;14.04;76.45
71523;HTU21D;59343;51.102;5.884;2023-03-23T01:51:42;14.03;76.54
71523;HTU21D;59343;51.102;5.884;2023-03-23T01:54:13;14.03;76.63
71523;HTU21D;59343;51.102;5.884;2023-03-23T01:56:45;14.01;76.71
71523;HTU21D;59343;51.102;5.884;2023-03-23T01:59:13;13.99;76.68
71523;HTU21D;59343;51.102;5.884;2023-03-23T02:01:44;13.99;76.73
71523;HTU21D;59343;51.102;5.884;2023-03-23T02:04:14;14.01;76.66
71523;HTU21D;59343;51.102;5.884;2023-03-23T02:06:43;13.96;76.81
71523;HTU21D;59343;51.102;5.884;2023-03-23T02:09:18;13.95;76.82
71523;HTU21D;59343;51.102;5.884;2023-03-23T02:11:48;13.95;76.84
71523;HTU21D;59343;51.102;5.884;2023-03-23T02:14:16;13.92;76.95
71523;HTU21D;59343;51.102;5.884;2023-03-23T02:20:00;13.90;77.07
71523;HTU21D;59343;51.102;5.884;2023-03-23T02:28:14;13.84;77.44
71523;HTU21D;59343;51.102;5.884;2023-03-23T02:31:08;13.84;77.40
71523;HTU21D;59343;51.102;5.884;2023-03-23T02:33:47;13.86;77.40
71523;HTU21D;59343;51.102;5.884;2023-03-23T02:41:57;13.85;77.47
71523;HTU21D;59343;51.102;5.884;2023-03-23T02:44:28;13.84;77.53
71523;HTU21D;59343;51.102;5.884;2023-03-23T02:46:59;13.83;77.66
71523;HTU21D;59343;51.102;5.884;2023-03-23T02:49:29;13.82;77.74
71523;HTU21D;59343;51.102;5.884;2023-03-23T02:52:00;13.82;77.76
71523;HTU21D;59343;51.102;5.884;2023-03-23T02:54:29;13.83;77.63
71523;HTU21D;59343;51.102;5.884;2023-03-23T02:56:57;13.80;77.86
71523;HTU21D;59343;51.102;5.884;2023-03-23T02:59:27;13.82;77.91
71523;HTU21D;59343;51.102;5.884;2023-03-23T03:02:00;13.81;77.83
71523;HTU21D;59343;51.102;5.884;2023-03-23T03:04:30;13.82;77.79
71523;HTU21D;59343;51.102;5.884;2023-03-23T03:10:09;13.82;77.76
71523;HTU21D;59343;51.102;5.884;2023-03-23T03:15:36;13.82;77.80
71523;HTU21D;59343;51.102;5.884;2023-03-23T03:18:20;13.86;77.56
71523;HTU21D;59343;51.102;5.884;2023-03-23T03:20:58;13.85;77.49
71523;HTU21D;59343;51.102;5.884;2023-03-23T03:23:27;13.85;77.40
71523;HTU21D;59343;51.102;5.884;2023-03-23T03:25:58;13.85;77.47
71523;HTU21D;59343;51.102;5.884;2023-03-23T03:28:36;13.86;77.45
71523;HTU21D;59343;51.102;5.884;2023-03-23T03:31:06;13.84;77.40
71523;HTU21D;59343;51.102;5.884;2023-03-23T03:33:33;13.84;77.34
71523;HTU21D;59343;51.102;5.884;2023-03-23T03:36:03;13.85;77.34
71523;HTU21D;59343;51.102;5.884;2023-03-23T03:38:41;13.88;77.31
71523;HTU21D;59343;51.102;5.884;2023-03-23T03:41:08;13.81;77.47
71523;HTU21D;59343;51.102;5.884;2023-03-23T03:43:34;13.80;77.56
71523;HTU21D;59343;51.102;5.884;2023-03-23T03:46:01;13.80;77.57
71523;HTU21D;59343;51.102;5.884;2023-03-23T03:48:27;13.81;77.55
71523;HTU21D;59343;51.102;5.884;2023-03-23T03:50:52;13.81;77.60
71523;HTU21D;59343;51.102;5.884;2023-03-23T03:53:23;13.83;77.38
71523;HTU21D;59343;51.102;5.884;2023-03-23T03:55:49;13.83;77.31
71523;HTU21D;59343;51.102;5.884;2023-03-23T03:58:16;13.82;77.34
71523;HTU21D;59343;51.102;5.884;2023-03-23T04:01:00;13.82;77.35
71523;HTU21D;59343;51.102;5.884;2023-03-23T04:03:30;13.82;77.40
71523;HTU21D;59343;51.102;5.884;2023-03-23T04:06:17;13.83;77.31
71523;HTU21D;59343;51.102;5.884;2023-03-23T04:08:45;13.83;77.27
71523;HTU21D;59343;51.102;5.884;2023-03-23T04:11:14;13.83;77.23
71523;HTU21D;59343;51.102;5.884;2023-03-23T04:13:40;13.85;77.11
71523;HTU21D;59343;51.102;5.884;2023-03-23T04:16:19;13.81;77.18
71523;HTU21D;59343;51.102;5.884;2023-03-23T04:18:47;13.81;77.11
71523;HTU21D;59343;51.102;5.884;2023-03-23T04:21:14;13.81;77.04
71523;HTU21D;59343;51.102;5.884;2023-03-23T04:23:43;13.80;76.96
71523;HTU21D;59343;51.102;5.884;2023-03-23T04:26:09;13.83;76.70
71523;HTU21D;59343;51.102;5.884;2023-03-23T04:28:41;13.81;76.79
71523;HTU21D;59343;51.102;5.884;2023-03-23T04:31:40;13.83;76.63
71523;HTU21D;59343;51.102;5.884;2023-03-23T04:34:37;13.84;76.55
71523;HTU21D;59343;51.102;5.884;2023-03-23T04:37:03;13.86;76.32
71523;HTU21D;59343;51.102;5.884;2023-03-23T04:39:31;13.86;76.18
71523;HTU21D;59343;51.102;5.884;2023-03-23T04:42:01;13.83;76.13
71523;HTU21D;59343;51.102;5.884;2023-03-23T04:44:47;13.81;76.05
71523;HTU21D;59343;51.102;5.884;2023-03-23T04:47:26;13.84;75.92
71523;HTU21D;59343;51.102;5.884;2023-03-23T04:49:56;13.83;75.85
71523;HTU21D;59343;51.102;5.884;2023-03-23T04:52:32;13.83;75.69
71523;HTU21D;59343;51.102;5.884;2023-03-23T04:55:01;13.81;75.68
71523;HTU21D;59343;51.102;5.884;2023-03-23T04:57:28;13.83;75.54
71523;HTU21D;59343;51.102;5.884;2023-03-23T05:00:13;13.82;75.47
71523;HTU21D;59343;51.102;5.884;2023-03-23T05:02:46;13.83;75.34
71523;HTU21D;59343;51.102;5.884;2023-03-23T05:05:22;13.84;74.99
71523;HTU21D;59343;51.102;5.884;2023-03-23T05:07:51;13.82;74.99
71523;HTU21D;59343;51.102;5.884;2023-03-23T05:10:20;13.83;74.89
71523;HTU21D;59343;51.102;5.884;2023-03-23T05:12:47;13.82;74.93
71523;HTU21D;59343;51.102;5.884;2023-03-23T05:15:15;13.83;74.83
71523;HTU21D;59343;51.102;5.884;2023-03-23T05:17:43;13.83;74.73
71523;HTU21D;59343;51.102;5.884;2023-03-23T05:20:16;13.83;74.49
71523;HTU21D;59343;51.102;5.884;2023-03-23T05:22:52;13.83;74.41
71523;HTU21D;59343;51.102;5.884;2023-03-23T05:25:27;13.81;74.31
71523;HTU21D;59343;51.102;5.884;2023-03-23T05:27:59;13.80;74.28
71523;HTU21D;59343;51.102;5.884;2023-03-23T05:30:42;13.80;74.12
71523;HTU21D;59343;51.102;5.884;2023-03-23T05:33:10;13.79;74.01
71523;HTU21D;59343;51.102;5.884;2023-03-23T05:35:52;13.82;73.72
71523;HTU21D;59343;51.102;5.884;2023-03-23T05:38:25;13.84;73.51
71523;HTU21D;59343;51.102;5.884;2023-03-23T05:40:51;13.89;73.20
71523;HTU21D;59343;51.102;5.884;2023-03-23T05:43:24;13.88;73.12
71523;HTU21D;59343;51.102;5.884;2023-03-23T05:46:17;13.90;72.90
71523;HTU21D;59343;51.102;5.884;2023-03-23T05:48:44;13.90;72.79
71523;HTU21D;59343;51.102;5.884;2023-03-23T05:51:15;13.88;72.62
71523;HTU21D;59343;51.102;5.884;2023-03-23T05:53:43;13.92;71.97
71523;HTU21D;59343;51.102;5.884;2023-03-23T05:56:13;13.94;72.06
71523;HTU21D;59343;51.102;5.884;2023-03-23T05:58:59;13.95;71.90
71523;HTU21D;59343;51.102;5.884;2023-03-23T06:01:27;13.94;71.89
71523;HTU21D;59343;51.102;5.884;2023-03-23T06:03:53;13.95;71.99
71523;HTU21D;59343;51.102;5.884;2023-03-23T06:06:29;13.93;71.93
71523;HTU21D;59343;51.102;5.884;2023-03-23T06:09:08;13.93;71.90
71523;HTU21D;59343;51.102;5.884;2023-03-23T06:11:45;13.96;71.80
71523;HTU21D;59343;51.102;5.884;2023-03-23T06:14:29;13.95;71.89
71523;HTU21D;59343;51.102;5.884;2023-03-23T06:16:56;13.99;71.86
71523;HTU21D;59343;51.102;5.884;2023-03-23T06:19:22;14.00;71.90
71523;HTU21D;59343;51.102;5.884;2023-03-23T06:21:58;13.97;71.88
71523;HTU21D;59343;51.102;5.884;2023-03-23T06:24:47;13.99;71.90
71523;HTU21D;59343;51.102;5.884;2023-03-23T06:27:18;13.97;72.06
71523;HTU21D;59343;51.102;5.884;2023-03-23T06:29:45;13.97;72.12
71523;HTU21D;59343;51.102;5.884;2023-03-23T06:32:13;13.97;72.25
71523;HTU21D;59343;51.102;5.884;2023-03-23T06:34:41;14.01;72.22
71523;HTU21D;59343;51.102;5.884;2023-03-23T06:37:38;14.06;72.10
71523;HTU21D;59343;51.102;5.884;2023-03-23T06:40:18;14.05;72.15
71523;HTU21D;59343;51.102;5.884;2023-03-23T06:42:51;13.99;72.26
71523;HTU21D;59343;51.102;5.884;2023-03-23T06:45:52;13.98;72.44
71523;HTU21D;59343;51.102;5.884;2023-03-23T06:48:36;13.95;72.46
71523;HTU21D;59343;51.102;5.884;2023-03-23T06:51:04;13.95;72.68
71523;HTU21D;59343;51.102;5.884;2023-03-23T06:53:31;13.97;72.62
71523;HTU21D;59343;51.102;5.884;2023-03-23T06:55:58;14.05;72.37
71523;HTU21D;59343;51.102;5.884;2023-03-23T06:58:24;14.01;72.41
71523;HTU21D;59343;51.102;5.884;2023-03-23T07:00:57;14.03;72.31
71523;HTU21D;59343;51.102;5.884;2023-03-23T07:03:29;14.04;72.37
71523;HTU21D;59343;51.102;5.884;2023-03-23T07:06:06;14.08;72.21
71523;HTU21D;59343;51.102;5.884;2023-03-23T07:08:36;14.08;71.98
71523;HTU21D;59343;51.102;5.884;2023-03-23T07:11:03;14.05;71.95
71523;HTU21D;59343;51.102;5.884;2023-03-23T07:13:29;14.07;72.06
71523;HTU21D;59343;51.102;5.884;2023-03-23T07:15:59;14.08;71.97
71523;HTU21D;59343;51.102;5.884;2023-03-23T07:18:27;14.08;71.92
71523;HTU21D;59343;51.102;5.884;2023-03-23T07:20:54;14.11;71.77
71523;HTU21D;59343;51.102;5.884;2023-03-23T07:23:26;14.10;71.85
71523;HTU21D;59343;51.102;5.884;2023-03-23T07:26:04;14.13;71.69
71523;HTU21D;59343;51.102;5.884;2023-03-23T07:28:36;14.12;71.73
71523;HTU21D;59343;51.102;5.884;2023-03-23T07:31:41;14.13;71.71
71523;HTU21D;59343;51.102;5.884;2023-03-23T07:34:08;14.20;71.44
71523;HTU21D;59343;51.102;5.884;2023-03-23T07:36:43;14.20;71.41
71523;HTU21D;59343;51.102;5.884;2023-03-23T07:39:10;14.26;70.99
71523;HTU21D;59343;51.102;5.884;2023-03-23T07:41:36;14.26;70.87
71523;HTU21D;59343;51.102;5.884;2023-03-23T07:44:14;14.24;70.81
71523;HTU21D;59343;51.102;5.884;2023-03-23T07:46:41;14.27;70.81
71523;HTU21D;59343;51.102;5.884;2023-03-23T07:49:19;14.34;70.81
71523;HTU21D;59343;51.102;5.884;2023-03-23T07:51:59;14.41;70.64
71523;HTU21D;59343;51.102;5.884;2023-03-23T07:54:27;14.44;70.23
71523;HTU21D;59343;51.102;5.884;2023-03-23T07:56:59;14.51;70.10
71523;HTU21D;59343;51.102;5.884;2023-03-23T07:59:28;14.58;69.87
71523;HTU21D;59343;51.102;5.884;2023-03-23T08:01:57;14.65;69.23
71523;HTU21D;59343;51.102;5.884;2023-03-23T08:04:58;14.62;69.29
71523;HTU21D;59343;51.102;5.884;2023-03-23T08:07:42;14.70;69.35
71523;HTU21D;59343;51.102;5.884;2023-03-23T08:10:12;14.74;69.20
71523;HTU21D;59343;51.102;5.884;2023-03-23T08:12:55;14.82;69.00
71523;HTU21D;59343;51.102;5.884;2023-03-23T08:15:40;14.87;68.76
71523;HTU21D;59343;51.102;5.884;2023-03-23T08:18:24;14.89;68.38
71523;HTU21D;59343;51.102;5.884;2023-03-23T08:20:58;14.99;68.27
71523;HTU21D;59343;51.102;5.884;2023-03-23T08:23:45;15.08;68.31
71523;HTU21D;59343;51.102;5.884;2023-03-23T08:26:29;15.17;67.72
71523;HTU21D;59343;51.102;5.884;2023-03-23T08:29:25;15.15;67.52
71523;HTU21D;59343;51.102;5.884;2023-03-23T08:32:10;15.07;67.65
71523;HTU21D;59343;51.102;5.884;2023-03-23T08:34:42;15.01;68.05
71523;HTU21D;59343;51.102;5.884;2023-03-23T08:37:31;15.00;68.22
71523;HTU21D;59343;51.102;5.884;2023-03-23T08:40:26;15.00;68.18
71523;HTU21D;59343;51.102;5.884;2023-03-23T08:43:13;14.95;68.33
71523;HTU21D;59343;51.102;5.884;2023-03-23T08:46:07;14.95;68.33
71523;HTU21D;59343;51.102;5.884;2023-03-23T08:48:48;14.85;68.69
71523;HTU21D;59343;51.102;5.884;2023-03-23T08:51:33;14.81;68.82
71523;HTU21D;59343;51.102;5.884;2023-03-23T08:54:25;14.55;69.90
71523;HTU21D;59343;51.102;5.884;2023-03-23T08:57:11;14.01;71.72
71523;HTU21D;59343;51.102;5.884;2023-03-23T09:00:19;13.40;74.31
71523;HTU21D;59343;51.102;5.884;2023-03-23T09:03:12;13.01;76.64
71523;HTU21D;59343;51.102;5.884;2023-03-23T09:06:03;12.78;77.84
71523;HTU21D;59343;51.102;5.884;2023-03-23T09:08:42;12.66;78.78
71523;HTU21D;59343;51.102;5.884;2023-03-23T09:11:09;12.57;79.62
71523;HTU21D;59343;51.102;5.884;2023-03-23T09:13:37;12.55;80.09
71523;HTU21D;59343;51.102;5.884;2023-03-23T09:16:05;12.53;80.26
71523;HTU21D;59343;51.102;5.884;2023-03-23T09:18:32;12.56;80.58
71523;HTU21D;59343;51.102;5.884;2023-03-23T09:20:59;12.56;80.46
71523;HTU21D;59343;51.102;5.884;2023-03-23T09:23:26;12.49;80.46
71523;HTU21D;59343;51.102;5.884;2023-03-23T09:25:53;12.46;80.71
71523;HTU21D;59343;51.102;5.884;2023-03-23T09:28:19;12.43;80.91
71523;HTU21D;59343;51.102;5.884;2023-03-23T09:30:46;12.47;81.14
71523;HTU21D;59343;51.102;5.884;2023-03-23T09:33:14;12.49;80.78
71523;HTU21D;59343;51.102;5.884;2023-03-23T09:35:40;12.47;80.88
71523;HTU21D;59343;51.102;5.884;2023-03-23T09:38:08;12.44;81.04
71523;HTU21D;59343;51.102;5.884;2023-03-23T09:40:46;12.40;81.14
71523;HTU21D;59343;51.102;5.884;2023-03-23T09:48:55;12.19;81.78
71523;HTU21D;59343;51.102;5.884;2023-03-23T09:54:09;12.25;81.93
71523;HTU21D;59343;51.102;5.884;2023-03-23T09:56:37;12.23;81.73
71523;HTU21D;59343;51.102;5.884;2023-03-23T09:59:07;12.26;81.36
71523;HTU21D;59343;51.102;5.884;2023-03-23T10:01:40;12.20;81.14
71523;HTU21D;59343;51.102;5.884;2023-03-23T10:06:49;12.25;81.25
71523;HTU21D;59343;51.102;5.884;2023-03-23T10:09:18;12.26;80.88
71523;HTU21D;59343;51.102;5.884;2023-03-23T10:20:32;12.53;80.79
71523;HTU21D;59343;51.102;5.884;2023-03-23T10:23:13;12.60;80.70
71523;HTU21D;59343;51.102;5.884;2023-03-23T10:25:52;12.63;80.59
71523;HTU21D;59343;51.102;5.884;2023-03-23T10:28:32;12.65;80.69
71523;HTU21D;59343;51.102;5.884;2023-03-23T10:31:01;12.70;80.89
71523;HTU21D;59343;51.102;5.884;2023-03-23T10:33:41;12.66;81.08
71523;HTU21D;59343;51.102;5.884;2023-03-23T10:39:12;12.73;81.45
71523;HTU21D;59343;51.102;5.884;2023-03-23T10:41:38;12.73;81.50
71523;HTU21D;59343;51.102;5.884;2023-03-23T10:44:20;12.79;81.84
71523;HTU21D;59343;51.102;5.884;2023-03-23T10:49:45;13.03;81.58
71523;HTU21D;59343;51.102;5.884;2023-03-23T10:52:32;13.02;81.27
71523;HTU21D;59343;51.102;5.884;2023-03-23T10:55:14;12.97;81.44
71523;HTU21D;59343;51.102;5.884;2023-03-23T10:57:43;12.94;81.75
71523;HTU21D;59343;51.102;5.884;2023-03-23T11:00:18;12.95;81.98
71523;HTU21D;59343;51.102;5.884;2023-03-23T11:02:47;12.94;82.19
71523;HTU21D;59343;51.102;5.884;2023-03-23T11:07:51;13.10;82.62
71523;HTU21D;59343;51.102;5.884;2023-03-23T11:10:28;13.23;82.82
71523;HTU21D;59343;51.102;5.884;2023-03-23T11:12:58;13.38;82.60
71523;HTU21D;59343;51.102;5.884;2023-03-23T11:15:30;13.53;82.40
71523;HTU21D;59343;51.102;5.884;2023-03-23T11:17:59;13.63;82.07
71523;HTU21D;59343;51.102;5.884;2023-03-23T11:20:28;13.70;82.10
71523;HTU21D;59343;51.102;5.884;2023-03-23T11:22:55;13.70;81.41
71523;HTU21D;59343;51.102;5.884;2023-03-23T11:25:22;13.70;81.68
71523;HTU21D;59343;51.102;5.884;2023-03-23T11:27:49;13.76;81.92
71523;HTU21D;59343;51.102;5.884;2023-03-23T11:30:24;13.80;81.83
71523;HTU21D;59343;51.102;5.884;2023-03-23T11:32:51;13.85;81.72
71523;HTU21D;59343;51.102;5.884;2023-03-23T11:35:26;13.88;81.62
71523;HTU21D;59343;51.102;5.884;2023-03-23T11:37:55;13.75;81.56
71523;HTU21D;59343;51.102;5.884;2023-03-23T11:40:25;13.67;82.14
71523;HTU21D;59343;51.102;5.884;2023-03-23T11:43:06;13.69;82.36
71523;HTU21D;59343;51.102;5.884;2023-03-23T11:45:39;13.68;82.63
71523;HTU21D;59343;51.102;5.884;2023-03-23T11:51:13;13.68;82.52
71523;HTU21D;59343;51.102;5.884;2023-03-23T11:56:41;13.65;82.84
71523;HTU21D;59343;51.102;5.884;2023-03-23T11:59:19;13.60;82.84
71523;HTU21D;59343;51.102;5.884;2023-03-23T12:10:40;13.58;83.23
71523;HTU21D;59343;51.102;5.884;2023-03-23T12:13:23;13.63;83.28
71523;HTU21D;59343;51.102;5.884;2023-03-23T12:22:14;14.04;83.32
71523;HTU21D;59343;51.102;5.884;2023-03-23T15:52:14;16.26;69.30
71523;HTU21D;59343;51.102;5.884;2023-03-23T15:54:47;16.20;69.63
71523;HTU21D;59343;51.102;5.884;2023-03-23T15:57:14;16.17;69.74
71523;HTU21D;59343;51.102;5.884;2023-03-23T15:59:40;16.16;69.71
71523;HTU21D;59343;51.102;5.884;2023-03-23T16:02:21;16.10;69.51
71523;HTU21D;59343;51.102;5.884;2023-03-23T16:04:49;16.05;69.28
71523;HTU21D;59343;51.102;5.884;2023-03-23T16:07:21;16.05;69.49
71523;HTU21D;59343;51.102;5.884;2023-03-23T16:09:47;16.02;68.64
71523;HTU21D;59343;51.102;5.884;2023-03-23T16:12:13;16.02;68.68
71523;HTU21D;59343;51.102;5.884;2023-03-23T16:14:42;16.02;68.58
71523;HTU21D;59343;51.102;5.884;2023-03-23T16:17:17;16.02;68.08
71523;HTU21D;59343;51.102;5.884;2023-03-23T16:19:43;15.99;67.79
71523;HTU21D;59343;51.102;5.884;2023-03-23T16:22:09;15.96;67.38
71523;HTU21D;59343;51.102;5.884;2023-03-23T16:24:35;15.96;67.04
71523;HTU21D;59343;51.102;5.884;2023-03-23T16:27:02;15.96;66.59
71523;HTU21D;59343;51.102;5.884;2023-03-23T16:29:28;15.96;66.59
71523;HTU21D;59343;51.102;5.884;2023-03-23T16:31:54;15.99;66.37
71523;HTU21D;59343;51.102;5.884;2023-03-23T16:34:23;16.01;66.30
71523;HTU21D;59343;51.102;5.884;2023-03-23T16:36:50;16.05;65.93
71523;HTU21D;59343;51.102;5.884;2023-03-23T16:39:16;16.06;65.82
71523;HTU21D;59343;51.102;5.884;2023-03-23T19:06:20;15.23;67.55
71523;HTU21D;59343;51.102;5.884;2023-03-23T19:20:40;15.09;68.00
71523;HTU21D;59343;51.102;5.884;2023-03-23T19:24:09;15.07;68.07
71523;HTU21D;59343;51.102;5.884;2023-03-23T19:26:34;15.09;68.07
71523;HTU21D;59343;51.102;5.884;2023-03-23T19:29:01;15.08;68.20
71523;HTU21D;59343;51.102;5.884;2023-03-23T19:31:30;15.06;68.33
71523;HTU21D;59343;51.102;5.884;2023-03-23T19:33:56;15.09;68.30
71523;HTU21D;59343;51.102;5.884;2023-03-23T19:36:25;15.11;68.36
71523;HTU21D;59343;51.102;5.884;2023-03-23T19:38:51;15.09;68.33
71523;HTU21D;59343;51.102;5.884;2023-03-23T19:41:20;15.10;68.42
71523;HTU21D;59343;51.102;5.884;2023-03-23T19:43:46;15.13;68.51
71523;HTU21D;59343;51.102;5.884;2023-03-23T19:46:13;15.11;68.55
71523;HTU21D;59343;51.102;5.884;2023-03-23T19:48:40;15.14;68.57
71523;HTU21D;59343;51.102;5.884;2023-03-23T19:51:06;15.14;68.44
71523;HTU21D;59343;51.102;5.884;2023-03-23T19:53:34;15.16;68.34
71523;HTU21D;59343;51.102;5.884;2023-03-23T19:56:00;15.16;68.28
71523;HTU21D;59343;51.102;5.884;2023-03-23T19:58:26;15.16;68.26
71523;HTU21D;59343;51.102;5.884;2023-03-23T20:00:53;15.16;68.23
71523;HTU21D;59343;51.102;5.884;2023-03-23T20:03:20;15.16;68.20
71523;HTU21D;59343;51.102;5.884;2023-03-23T20:05:46;15.16;68.19
71523;HTU21D;59343;51.102;5.884;2023-03-23T20:08:12;15.16;68.09
71523;HTU21D;59343;51.102;5.884;2023-03-23T20:10:38;15.15;68.04
71523;HTU21D;59343;51.102;5.884;2023-03-23T20:13:10;15.17;68.04
71523;HTU21D;59343;51.102;5.884;2023-03-23T20:15:38;15.15;68.02
71523;HTU21D;59343;51.102;5.884;2023-03-23T20:18:04;15.18;67.87
71523;HTU21D;59343;51.102;5.884;2023-03-23T20:20:32;15.16;67.90
71523;HTU21D;59343;51.102;5.884;2023-03-23T20:23:00;15.17;67.92
71523;HTU21D;59343;51.102;5.884;2023-03-23T20:25:26;15.15;67.87
71523;HTU21D;59343;51.102;5.884;2023-03-23T20:27:52;15.19;67.70
71523;HTU21D;59343;51.102;5.884;2023-03-23T20:30:21;15.17;67.68
71523;HTU21D;59343;51.102;5.884;2023-03-23T20:32:47;15.18;67.64
71523;HTU21D;59343;51.102;5.884;2023-03-23T20:35:13;15.21;67.62
71523;HTU21D;59343;51.102;5.884;2023-03-23T20:37:42;15.22;67.74
71523;HTU21D;59343;51.102;5.884;2023-03-23T20:40:12;15.18;67.78
71523;HTU21D;59343;51.102;5.884;2023-03-23T20:42:39;15.16;67.91
71523;HTU21D;59343;51.102;5.884;2023-03-23T20:45:13;15.15;67.88
71523;HTU21D;59343;51.102;5.884;2023-03-23T20:47:39;15.13;67.45
71523;HTU21D;59343;51.102;5.884;2023-03-23T20:50:07;15.14;67.53
71523;HTU21D;59343;51.102;5.884;2023-03-23T20:52:35;15.14;67.52
71523;HTU21D;59343;51.102;5.884;2023-03-23T20:55:02;15.18;67.30
71523;HTU21D;59343;51.102;5.884;2023-03-23T20:57:29;15.21;67.36
71523;HTU21D;59343;51.102;5.884;2023-03-23T20:59:59;15.16;67.14
71523;HTU21D;59343;51.102;5.884;2023-03-23T21:02:25;15.17;67.06
71523;HTU21D;59343;51.102;5.884;2023-03-23T21:05:00;15.13;67.10
71523;HTU21D;59343;51.102;5.884;2023-03-23T21:07:31;15.10;67.44
71523;HTU21D;59343;51.102;5.884;2023-03-23T21:10:03;15.07;67.65
71523;HTU21D;59343;51.102;5.884;2023-03-23T21:12:32;15.04;67.88
71523;HTU21D;59343;51.102;5.884;2023-03-23T21:14:59;14.97;68.36
71523;HTU21D;59343;51.102;5.884;2023-03-23T21:17:25;14.93;68.78
71523;HTU21D;59343;51.102;5.884;2023-03-23T21:19:54;14.89;68.93
71523;HTU21D;59343;51.102;5.884;2023-03-23T21:22:20;14.82;69.55
71523;HTU21D;59343;51.102;5.884;2023-03-23T21:24:47;14.78;70.00
71523;HTU21D;59343;51.102;5.884;2023-03-23T21:27:15;14.71;70.57
71523;HTU21D;59343;51.102;5.884;2023-03-23T21:29:43;14.67;71.42
71523;HTU21D;59343;51.102;5.884;2023-03-23T21:32:15;14.60;71.77
71523;HTU21D;59343;51.102;5.884;2023-03-23T21:34:42;14.55;72.19
71523;HTU21D;59343;51.102;5.884;2023-03-23T21:37:14;14.47;73.07
71523;HTU21D;59343;51.102;5.884;2023-03-23T21:39:40;14.43;73.17
71523;HTU21D;59343;51.102;5.884;2023-03-23T21:42:07;14.42;73.51
71523;HTU21D;59343;51.102;5.884;2023-03-23T21:44:34;14.37;73.96
71523;HTU21D;59343;51.102;5.884;2023-03-23T21:47:03;14.36;74.25
71523;HTU21D;59343;51.102;5.884;2023-03-23T21:50:16;14.32;74.76
71523;HTU21D;59343;51.102;5.884;2023-03-23T21:52:48;14.29;75.31
71523;HTU21D;59343;51.102;5.884;2023-03-23T21:55:15;14.27;75.67
71523;HTU21D;59343;51.102;5.884;2023-03-23T21:57:42;14.23;76.44
71523;HTU21D;59343;51.102;5.884;2023-03-23T22:00:10;14.18;76.86
71523;HTU21D;59343;51.102;5.884;2023-03-23T22:02:45;14.12;77.21
71523;HTU21D;59343;51.102;5.884;2023-03-23T22:05:11;14.03;78.34
71523;HTU21D;59343;51.102;5.884;2023-03-23T22:07:37;14.03;78.22
71523;HTU21D;59343;51.102;5.884;2023-03-23T22:10:06;14.04;78.50
71523;HTU21D;59343;51.102;5.884;2023-03-23T22:12:35;13.95;78.92
71523;HTU21D;59343;51.102;5.884;2023-03-23T22:15:07;13.95;79.13
71523;HTU21D;59343;51.102;5.884;2023-03-23T22:26:21;13.80;80.78
71523;HTU21D;59343;51.102;5.884;2023-03-23T22:28:49;13.79;80.88
71523;HTU21D;59343;51.102;5.884;2023-03-23T22:31:42;13.77;81.18
71523;HTU21D;59343;51.102;5.884;2023-03-23T22:34:10;13.74;81.36
71523;HTU21D;59343;51.102;5.884;2023-03-23T22:36:37;13.73;81.51
71523;HTU21D;59343;51.102;5.884;2023-03-23T22:39:04;13.75;81.51
71523;HTU21D;59343;51.102;5.884;2023-03-23T22:41:36;13.69;81.74
71523;HTU21D;59343;51.102;5.884;2023-03-23T22:44:11;13.71;81.68
71523;HTU21D;59343;51.102;5.884;2023-03-23T22:46:40;13.68;82.08
71523;HTU21D;59343;51.102;5.884;2023-03-23T22:49:06;13.70;81.99
71523;HTU21D;59343;51.102;5.884;2023-03-23T22:51:33;13.68;82.13
71523;HTU21D;59343;51.102;5.884;2023-03-23T22:53:59;13.68;82.22
71523;HTU21D;59343;51.102;5.884;2023-03-23T22:56:25;13.67;82.39
71523;HTU21D;59343;51.102;5.884;2023-03-23T22:58:51;13.67;82.46
71523;HTU21D;59343;51.102;5.884;2023-03-23T23:01:21;13.68;82.54
71523;HTU21D;59343;51.102;5.884;2023-03-23T23:03:48;13.64;82.67
71523;HTU21D;59343;51.102;5.884;2023-03-23T23:06:15;13.60;82.91
71523;HTU21D;59343;51.102;5.884;2023-03-23T23:08:43;13.59;82.92